Información del aeropuerto LEBZ

Información de pista
Pista 13 Longitud 9350 ft Anchura 197 ft
Elevación 579 ft Umbral 0 ft Rumbo 126
Pista 31 Longitud 9350 ft Anchura 197 ft
Elevación 609 ft Umbral 0 ft Rumbo 306
Frecuencias del aeropuerto
Tipo APP Nombre APP Frecuencia 139.3 MHZ
Tipo TWR Nombre BADAJOZ TW Frecuencia 122.1 MHZ
Radioayudas del aeropuerto
Tipo NDB Nombre Badajoz Frecuencia 298 KHZ
Tipo TACAN Nombre Talavera Frecuencia 108800 KHZ
Tipo VOR-DME Nombre Badajoz Frecuencia 116800 KHZ
Información meteorológica del aeropuerto y NOTAM
ADDS - METARS form results

(1127 UTC 03 March 2021)
Data provider http://aviationweather.gov/metar/data/
 
METAR text: LEBZ 031100Z 08007KT 050V120 CAVOK 16/11 Q1027
Conditions at: LEBZ (TALAVERA AB/BADA, ES) observed 1100 UTC 03 March 2021
Temperature: 16.0°C (61°F)
Dewpoint: 11.0°C (52°F) [RH = 72%]
Pressure (altimeter): 30.32 inches Hg (1027.0 mb)
Winds: from the E (80 degrees) at 8 MPH (7 knots; 3.6 m/s)
Visibility: 6 or more miles (10+ km)
Ceiling: ceiling and visibility are OK
Clouds: unknown
Weather: no significant weather observed at this time

METAR text: LEBZ 031030Z 08004KT 040V140 CAVOK 15/11 Q1027
Conditions at: LEBZ (TALAVERA AB/BADA, ES) observed 1030 UTC 03 March 2021
Temperature: 15.0°C (59°F)
Dewpoint: 11.0°C (52°F) [RH = 77%]
Pressure (altimeter): 30.32 inches Hg (1027.0 mb)
Winds: from the E (80 degrees) at 5 MPH (4 knots; 2.1 m/s)
Visibility: 6 or more miles (10+ km)
Ceiling: ceiling and visibility are OK
Clouds: unknown
Weather: no significant weather observed at this time

Forecast for: LEBZ (TALAVERA AB/BADA, ES)
Text: TAF LEBZ 031100Z 0312/0412 08005KT CAVOK TX20/0315Z TN07/0406Z
Forecast period: 1200 UTC 03 March 2021 to 1200 UTC 04 March 2021
Forecast type: FROM: standard forecast or significant change
Winds: from the E (80 degrees) at 6 MPH (5 knots; 2.6 m/s)
Visibility: 6 or more miles (10+ km)
Ceiling: unknown
Clouds: missing
Weather: no significant weather forecast for this period